Time;durP1;ratioP1;P1;durP2;ratioP2;P2;SDS_P1;SDS_P2;PMS_P1;PMS_P2;Temp;Humidity;BMP_temperature;BMP_pressure;BME280_temperature;BME280_humidity;BME280_pressure;Samples;Min_cycle;Max_cycle;Signal;HPM_P1;HPM_P2
2022/04/05 00:02:41;;;;;;;2.50;2.30;;;2.40;1.40;;;2.48;100.00;94896.31;647928;212;42544;-73
2022/04/05 00:07:57;;;;;;;1.87;1.58;;;2.40;1.40;;;2.52;100.00;94902.16;638440;216;32020;-73
2022/04/05 00:10:38;;;;;;;5.70;2.20;;;2.50;1.40;;;2.56;100.00;94893.64;646798;212;42736;-75
2022/04/05 00:13:20;;;;;;;2.20;1.77;;;2.50;1.40;;;2.54;100.00;94882.30;647395;216;31589;-75
2022/04/05 00:16:02;;;;;;;2.10;1.90;;;2.40;1.40;;;2.55;100.00;94891.02;620307;226;32085;-73
2022/04/05 00:18:43;;;;;;;2.90;1.83;;;2.50;1.40;;;2.57;100.00;94888.40;647188;216;31638;-74
2022/04/05 00:21:25;;;;;;;3.80;2.92;;;2.50;1.40;;;2.55;100.00;94883.85;647725;216;42260;-74
2022/04/05 00:24:08;;;;;;;1.50;1.40;;;2.50;1.40;;;2.61;100.00;94864.45;646761;216;31697;-73
2022/04/05 00:26:55;;;;;;;3.65;2.60;;;2.60;1.40;;;2.62;100.00;94884.20;645769;212;43385;-73
2022/04/05 00:29:35;;;;;;;2.87;2.28;;;2.60;1.40;;;2.63;100.00;94882.16;647169;216;31606;-72
2022/04/05 00:32:17;;;;;;;3.00;2.23;;;2.60;1.40;;;2.63;100.00;94871.67;647389;212;42363;-74
2022/04/05 00:37:58;;;;;;;6.35;2.17;;;2.60;1.40;;;2.76;100.00;94865.45;619575;226;31895;-74
2022/04/05 00:40:41;;;;;;;3.62;1.75;;;2.70;1.40;;;2.78;100.00;94854.48;645936;216;31562;-74
2022/04/05 00:43:22;;;;;;;2.78;1.92;;;2.70;1.40;;;2.75;100.00;94864.70;646357;216;31560;-74
2022/04/05 00:46:04;;;;;;;2.95;2.60;;;2.70;1.40;;;2.77;100.00;94861.17;647928;216;31555;-73
2022/04/05 00:48:51;;;;;;;1.80;1.55;;;2.70;1.40;;;2.71;100.00;94863.42;647969;212;42189;-72
2022/04/05 00:51:33;;;;;;;2.90;2.60;;;2.70;1.40;;;2.78;100.00;94859.40;619793;226;32885;-74
2022/04/05 00:54:15;;;;;;;2.40;1.75;;;2.80;1.40;;;2.78;100.00;94867.80;647631;212;31572;-72
2022/04/05 00:56:56;;;;;;;4.47;2.67;;;2.80;1.40;;;2.84;100.00;94848.82;647019;216;31959;-73
2022/04/05 00:59:41;;;;;;;3.80;3.00;;;2.80;1.40;;;2.89;100.00;94847.09;646336;216;42225;-74
2022/04/05 01:02:20;;;;;;;1.45;1.35;;;2.80;1.40;;;2.85;100.00;94854.12;619437;226;31921;-74
2022/04/05 01:05:07;;;;;;;1.23;1.20;;;2.80;1.40;;;2.93;100.00;94849.81;647627;216;42722;-74
2022/04/05 01:07:48;;;;;;;1.55;1.27;;;2.90;1.40;;;2.94;100.00;94851.91;639022;216;31895;-75
2022/04/05 01:10:30;;;;;;;2.05;1.87;;;2.90;1.40;;;2.94;100.00;94868.12;647357;216;42168;-75
2022/04/05 01:13:12;;;;;;;3.60;3.25;;;2.90;1.40;;;2.97;100.00;94861.11;647819;212;31562;-75
2022/04/05 01:15:46;;;;;;;4.73;2.50;;;2.90;1.40;;;2.98;100.00;94848.98;640824;220;23568;-73
2022/04/05 01:18:20;;;;;;;2.13;2.03;;;2.90;1.40;;;2.98;100.00;94849.99;642395;221;25203;-74
2022/04/05 01:21:05;;;;;;;3.78;1.90;;;2.90;1.40;;;3.05;100.00;94892.12;646971;212;31917;-73
2022/04/05 01:24:11;;;;;;;5.40;1.67;;;3.00;1.40;;;3.00;100.00;94848.22;648082;216;31788;-74
2022/04/05 01:26:55;;;;;;;2.40;2.20;;;2.90;1.40;;;2.99;100.00;94853.42;648052;212;42485;-73
2022/04/05 01:29:38;;;;;;;2.45;1.80;;;2.90;1.40;;;3.02;100.00;94837.66;647313;212;31565;-74
2022/04/05 01:32:20;;;;;;;3.22;2.12;;;2.90;1.40;;;2.97;100.00;94844.98;619878;225;31889;-75
2022/04/05 01:35:51;;;;;;;3.20;1.50;;;2.80;1.40;;;2.98;100.00;94845.81;647724;216;32137;-75
2022/04/05 01:38:34;;;;;;;2.65;1.62;;;2.90;1.40;;;2.98;100.00;94857.38;647058;216;31589;-76
2022/04/05 01:41:15;;;;;;;3.03;2.10;;;2.90;1.40;;;3.05;100.00;94849.55;647614;216;31621;-75
2022/04/05 01:43:57;;;;;;;2.40;2.15;;;3.00;1.40;;;3.02;100.00;94836.86;646547;216;31607;-73
2022/04/05 01:46:39;;;;;;;3.10;2.50;;;2.90;1.40;;;2.94;100.00;94832.09;646378;216;31594;-74
2022/04/05 01:49:20;;;;;;;2.85;1.77;;;2.70;1.40;;;2.86;100.00;94825.53;621141;226;32018;-74
2022/04/05 01:52:02;;;;;;;2.05;1.67;;;2.70;1.40;;;2.73;100.00;94823.81;648686;216;31624;-73
2022/04/05 01:54:45;;;;;;;2.58;1.83;;;2.60;1.40;;;2.66;100.00;94822.70;647186;216;31549;-75
2022/04/05 01:57:29;;;;;;;6.10;2.45;;;2.60;1.40;;;2.71;100.00;94822.80;648839;216;42169;-77
2022/04/05 02:00:14;;;;;;;1.80;1.50;;;2.60;1.40;;;2.79;100.00;94814.65;647064;216;42156;-75
2022/04/05 02:03:00;;;;;;;5.15;2.37;;;2.70;1.40;;;2.78;100.00;94808.92;645508;216;31621;-73
2022/04/05 02:05:46;;;;;;;3.03;2.22;;;2.70;1.40;;;2.82;100.00;94817.23;647328;212;31575;-75
2022/04/05 02:08:26;;;;;;;3.33;2.90;;;2.70;1.40;;;2.89;100.00;94800.25;611002;222;42745;-74
2022/04/05 02:11:07;;;;;;;2.80;2.60;;;2.80;1.40;;;2.95;100.00;94781.66;643259;216;31616;-75
2022/04/05 02:13:49;;;;;;;3.70;2.50;;;2.90;1.40;;;2.99;100.00;94792.05;647254;212;31542;-75
2022/04/05 02:16:34;;;;;;;3.00;2.70;;;2.90;1.40;;;3.07;100.00;94805.79;646705;216;31847;-71
2022/04/05 02:19:16;;;;;;;2.60;2.40;;;3.00;1.40;;;3.16;100.00;94771.13;647290;216;31662;-75
2022/04/05 02:21:57;;;;;;;3.12;2.30;;;3.10;1.40;;;3.25;100.00;94773.98;646880;216;42431;-75
2022/04/05 02:24:39;;;;;;;3.53;2.20;;;3.10;1.40;;;3.22;100.00;94769.71;647522;216;31549;-74
2022/04/05 02:27:21;;;;;;;3.20;2.00;;;3.10;1.40;;;3.27;100.00;94775.20;646833;216;42164;-76
2022/04/05 02:30:03;;;;;;;1.95;1.40;;;3.30;1.40;;;3.35;100.00;94780.87;646347;216;42203;-74
2022/04/05 02:32:44;;;;;;;3.45;2.20;;;3.30;1.40;;;3.42;100.00;94782.82;646715;216;31689;-74
2022/04/05 02:35:52;;;;;;;1.30;1.20;;;3.30;1.40;;;3.39;100.00;94779.99;647214;216;31552;-74
2022/04/05 02:38:33;;;;;;;2.50;1.17;;;3.30;1.40;;;3.50;100.00;94790.70;647317;216;31535;-73
2022/04/05 02:41:17;;;;;;;1.55;1.40;;;3.40;1.40;;;3.62;100.00;94769.59;647917;216;31592;-75
2022/04/05 02:43:59;;;;;;;2.40;1.70;;;3.50;1.40;;;3.70;100.00;94764.46;646749;212;31761;-75
2022/04/05 02:46:43;;;;;;;2.20;1.42;;;3.50;1.40;;;3.72;100.00;94766.19;645969;212;31579;-78
2022/04/05 02:49:30;;;;;;;2.20;1.90;;;3.50;1.40;;;3.77;100.00;94779.98;646672;216;32111;-74
2022/04/05 02:52:15;;;;;;;2.42;2.22;;;3.60;1.40;;;3.96;100.00;94761.64;647450;212;31643;-75
2022/04/05 02:54:57;;;;;;;2.58;2.08;;;3.70;1.40;;;3.90;100.00;94774.72;646442;212;31548;-76
2022/04/05 02:57:39;;;;;;;4.72;2.30;;;3.70;1.40;;;4.02;100.00;94772.97;648061;212;31493;-74
2022/04/05 03:00:21;;;;;;;2.33;2.08;;;3.80;1.40;;;4.07;100.00;94784.14;647704;216;31580;-75
2022/04/05 03:03:07;;;;;;;2.00;1.90;;;3.90;1.40;;;4.19;100.00;94766.16;647585;216;31553;-74
2022/04/05 03:05:50;;;;;;;2.65;2.10;;;3.90;1.40;;;4.16;100.00;94777.28;646879;216;32079;-74
2022/04/05 03:08:31;;;;;;;2.25;1.75;;;3.90;1.40;;;4.20;100.00;94770.48;620180;222;32373;-75
2022/04/05 03:11:14;;;;;;;3.05;1.70;;;4.00;1.40;;;4.23;100.00;94755.77;618454;226;32432;-77
2022/04/05 03:13:55;;;;;;;2.03;1.80;;;4.00;1.40;;;4.23;100.00;94765.69;647415;212;31585;-77
2022/04/05 03:16:37;;;;;;;2.40;1.98;;;4.00;1.40;;;4.30;100.00;94776.28;620229;222;32454;-77
2022/04/05 03:19:24;;;;;;;2.03;1.83;;;4.10;1.40;;;4.31;100.00;94772.41;619798;226;31999;-76
2022/04/05 03:22:10;;;;;;;2.28;1.75;;;4.10;1.40;;;4.33;100.00;94785.75;646834;212;31855;-77
2022/04/05 03:24:51;;;;;;;2.67;2.47;;;4.10;1.40;;;4.36;100.00;94767.11;647805;212;31721;-77
2022/04/05 03:27:38;;;;;;;3.00;1.80;;;4.10;1.40;;;4.40;100.00;94754.98;646020;216;31586;-74
2022/04/05 03:30:22;;;;;;;3.55;2.35;;;4.10;1.40;;;4.47;100.00;94762.03;620094;226;32046;-76
2022/04/05 03:35:58;;;;;;;4.93;2.50;;;4.10;1.40;;;4.50;100.00;94775.53;621398;226;32014;-76
2022/04/05 03:38:46;;;;;;;4.28;2.42;;;4.20;1.40;;;4.53;100.00;94756.50;645713;216;32203;-77
2022/04/05 03:41:35;;;;;;;1.93;1.50;;;4.20;1.40;;;4.47;100.00;94752.75;648106;216;32553;-76
2022/04/05 03:44:19;;;;;;;3.87;1.98;;;4.20;1.40;;;4.47;100.00;94751.95;648282;212;31548;-77
2022/04/05 03:47:02;;;;;;;3.72;1.90;;;4.20;1.40;;;4.58;100.00;94742.98;648186;212;31556;-75
2022/04/05 03:49:52;;;;;;;2.70;1.10;;;4.30;1.40;;;4.56;100.00;94740.86;647363;216;31577;-75
2022/04/05 03:52:36;;;;;;;2.35;2.00;;;4.30;1.40;;;4.54;100.00;94729.06;621779;226;31867;-76
2022/04/05 03:55:24;;;;;;;3.40;2.00;;;4.30;1.40;;;4.46;100.00;94728.58;646401;212;32325;-78
2022/04/05 03:58:12;;;;;;;2.60;1.40;;;4.30;1.40;;;4.47;100.00;94744.92;649001;212;31567;-77
2022/04/05 04:00:51;;;;;;;1.73;1.10;;;4.30;1.40;;;4.53;100.00;94727.84;648128;212;31519;-75
2022/04/05 04:03:32;;;;;;;3.20;1.70;;;4.30;1.40;;;4.59;100.00;94726.33;647879;212;31541;-78
2022/04/05 04:06:14;;;;;;;2.70;2.10;;;4.30;1.40;;;4.61;100.00;94747.08;651484;212;31628;-75
2022/04/05 04:09:06;;;;;;;1.92;1.52;;;4.50;1.40;;;4.46;100.00;94716.78;635376;212;33550;-77
2022/04/05 04:22:27;;;;;;;4.40;2.40;;;4.50;1.40;;;4.67;100.00;94715.10;651712;216;42199;-74
2022/04/05 04:25:11;;;;;;;1.95;1.45;;;4.40;1.40;;;4.70;100.00;94726.62;647627;212;33605;-74
2022/04/05 04:27:53;;;;;;;2.80;2.27;;;4.50;1.40;;;4.83;100.00;94706.81;648302;212;31590;-76
2022/04/05 04:30:38;;;;;;;1.70;1.40;;;4.50;1.40;;;4.71;100.00;94715.59;621049;222;31980;-75
2022/04/05 04:35:55;;;;;;;2.45;1.90;;;4.60;1.40;;;4.75;100.00;94708.73;647767;216;31565;-74
2022/04/05 04:38:40;;;;;;;3.40;1.90;;;4.50;1.40;;;4.74;100.00;94726.63;648376;216;32140;-74
2022/04/05 04:41:30;;;;;;;4.20;2.30;;;4.50;1.40;;;4.81;100.00;94722.34;647516;212;39819;-74
2022/04/05 04:44:14;;;;;;;2.33;1.60;;;4.60;1.40;;;4.74;100.00;94718.84;620402;225;31893;-74
2022/04/05 04:46:58;;;;;;;1.98;1.77;;;4.50;1.40;;;4.80;100.00;94717.86;649061;212;31519;-74
2022/04/05 04:49:43;;;;;;;2.80;2.10;;;4.50;1.40;;;4.82;100.00;94722.39;631750;222;31857;-74
2022/04/05 04:52:39;;;;;;;2.60;1.50;;;4.60;1.40;;;4.97;100.00;94706.67;619585;222;42515;-74
2022/04/05 04:55:22;;;;;;;1.90;1.60;;;4.70;1.40;;;5.06;100.00;94697.24;643053;213;31598;-74
2022/04/05 04:58:04;;;;;;;1.70;1.42;;;4.80;1.40;;;4.95;100.00;94713.41;621151;222;31912;-74
2022/04/05 05:00:48;;;;;;;1.90;1.62;;;4.70;1.40;;;5.00;100.00;94713.28;648823;212;31673;-74
2022/04/05 05:03:30;;;;;;;1.92;1.73;;;4.70;1.40;;;4.82;100.00;94743.93;620802;222;31931;-74
2022/04/05 05:06:12;;;;;;;2.00;1.65;;;4.70;1.40;;;4.77;100.00;94722.45;620622;222;31935;-76
2022/04/05 05:08:59;;;;;;;3.40;2.12;;;4.70;1.40;;;4.91;100.00;94727.53;648281;216;31544;-76
2022/04/05 05:11:46;;;;;;;7.30;1.92;;;4.80;1.40;;;4.84;100.00;94731.27;647429;214;32092;-74
2022/04/05 05:14:34;;;;;;;2.47;2.22;;;4.70;1.40;;;4.88;100.00;94726.70;649786;216;31564;-76
2022/04/05 05:17:21;;;;;;;3.05;1.75;;;4.80;1.40;;;4.88;100.00;94749.54;648994;212;31770;-75
2022/04/05 05:20:06;;;;;;;2.03;1.48;;;4.70;1.40;;;4.89;100.00;94744.91;618871;222;31905;-76
2022/04/05 05:22:50;;;;;;;2.37;1.95;;;4.70;1.40;;;4.97;100.00;94742.77;647298;216;31561;-72
2022/04/05 05:25:32;;;;;;;3.05;1.90;;;4.80;1.40;;;4.91;100.00;94759.38;648812;216;31563;-74
2022/04/05 05:28:13;;;;;;;2.30;1.70;;;4.70;1.40;;;4.90;100.00;94754.34;646474;212;31647;-75
2022/04/05 05:30:55;;;;;;;2.92;1.37;;;4.70;1.40;;;4.90;100.00;94749.46;647627;216;31647;-75
2022/04/05 05:35:51;;;;;;;2.17;1.98;;;4.60;1.40;;;4.86;100.00;94754.23;619649;226;31890;-76
2022/04/05 05:38:33;;;;;;;1.90;1.33;;;4.60;1.40;;;4.81;100.00;94754.09;647979;212;32109;-76
2022/04/05 05:41:15;;;;;;;4.28;2.35;;;4.50;1.40;;;4.78;100.00;94766.53;647463;216;32683;-75
2022/04/05 05:43:56;;;;;;;4.50;2.30;;;4.60;1.40;;;4.83;100.00;94751.33;632198;222;31739;-76
2022/04/05 05:46:38;;;;;;;2.00;1.75;;;4.60;1.40;;;4.79;100.00;94759.80;647136;212;31545;-75
2022/04/05 05:49:20;;;;;;;1.85;1.75;;;4.60;1.40;;;4.75;100.00;94753.41;647280;216;31541;-74
2022/04/05 05:52:01;;;;;;;2.10;1.90;;;4.60;1.40;;;4.65;100.00;94754.09;647518;216;31516;-74
2022/04/05 05:54:43;;;;;;;2.83;1.50;;;4.40;1.40;;;4.60;100.00;94762.23;647637;216;31600;-73
2022/04/05 05:57:28;;;;;;;2.20;1.70;;;4.50;1.40;;;4.55;100.00;94769.80;651027;212;31571;-77
2022/04/05 06:00:10;;;;;;;2.00;1.80;;;4.40;1.40;;;4.50;100.00;94777.47;649705;216;31581;-77
2022/04/05 06:02:56;;;;;;;2.85;1.70;;;4.40;1.40;;;4.52;100.00;94781.59;649012;212;31544;-75
2022/04/05 06:05:38;;;;;;;4.05;1.60;;;4.40;1.40;;;4.38;100.00;94786.95;646084;216;31579;-74
2022/04/05 06:08:31;;;;;;;2.37;1.87;;;4.30;1.40;;;4.32;100.00;94795.20;637960;216;31701;-76
2022/04/05 06:11:18;;;;;;;2.55;1.60;;;4.30;1.40;;;4.37;100.00;94785.30;647064;216;31584;-73
2022/04/05 06:14:02;;;;;;;1.10;1.00;;;4.30;1.40;;;4.48;100.00;94787.91;618849;226;31927;-76
2022/04/05 06:16:45;;;;;;;2.30;2.10;;;4.40;1.40;;;4.40;100.00;94795.77;618626;226;32064;-74
2022/04/05 06:19:28;;;;;;;3.00;2.20;;;4.30;1.40;;;4.40;100.00;94784.40;647331;216;31562;-73
2022/04/05 06:22:16;;;;;;;2.10;1.90;;;4.30;1.40;;;4.33;100.00;94801.64;647741;212;31590;-75
2022/04/05 06:25:00;;;;;;;2.97;2.58;;;4.20;1.40;;;4.33;100.00;94798.41;618288;222;32040;-73
2022/04/05 06:27:42;;;;;;;4.00;2.15;;;4.10;1.40;;;4.26;100.00;94798.72;646562;216;31650;-72
2022/04/05 06:30:23;;;;;;;2.40;1.20;;;4.10;1.40;;;4.17;100.00;94798.47;645764;212;31878;-73
2022/04/05 06:35:51;;;;;;;1.85;1.52;;;4.00;1.40;;;4.16;100.00;94801.59;646791;212;32187;-72
2022/04/05 06:38:35;;;;;;;4.12;2.28;;;4.00;1.40;;;4.06;100.00;94788.70;647122;216;31567;-73
2022/04/05 06:41:17;;;;;;;6.50;2.30;;;3.90;1.40;;;4.03;100.00;94785.62;647724;216;31881;-72
2022/04/05 06:43:59;;;;;;;2.67;1.83;;;3.90;1.40;;;4.01;100.00;94809.39;645509;212;33501;-72
2022/04/05 06:46:41;;;;;;;3.47;2.90;;;3.90;1.40;;;4.02;100.00;94801.98;647709;216;42239;-73
2022/04/05 06:49:25;;;;;;;1.40;1.10;;;3.90;1.40;;;4.05;100.00;94794.18;647892;216;31530;-73
2022/04/05 06:52:07;;;;;;;3.12;2.22;;;4.00;1.40;;;4.05;100.00;94815.58;645793;216;31593;-73
2022/04/05 06:54:49;;;;;;;2.60;2.15;;;3.90;1.40;;;4.03;100.00;94790.88;645862;216;31587;-75
2022/04/05 06:57:31;;;;;;;2.37;1.63;;;3.90;1.40;;;4.09;100.00;94799.57;620044;225;31924;-73
2022/04/05 07:00:13;;;;;;;2.10;2.00;;;3.90;1.40;;;4.08;100.00;94801.94;645313;212;31710;-74
2022/04/05 07:02:55;;;;;;;6.28;1.87;;;4.00;1.40;;;4.11;100.00;94784.94;644644;212;31558;-74
2022/04/05 07:05:36;;;;;;;3.08;2.00;;;4.00;1.40;;;4.28;100.00;94779.68;646953;212;31556;-72
2022/04/05 07:08:18;;;;;;;2.00;1.80;;;4.20;1.40;;;4.31;100.00;94785.50;615364;223;32057;-73
2022/04/05 07:11:00;;;;;;;2.10;1.60;;;4.20;1.40;;;4.33;100.00;94777.76;647189;216;31600;-72
2022/04/05 07:13:44;;;;;;;2.85;2.05;;;4.20;1.40;;;4.33;100.00;94773.73;646672;216;31579;-73
2022/04/05 07:16:29;;;;;;;2.25;2.05;;;4.20;1.40;;;4.38;100.00;94767.20;646700;214;31574;-74
2022/04/05 07:19:13;;;;;;;4.75;1.90;;;4.30;1.40;;;4.39;100.00;94773.14;647653;216;32063;-77
2022/04/05 07:21:57;;;;;;;2.60;1.90;;;4.30;1.40;;;4.40;100.00;94777.05;647282;216;31595;-73
2022/04/05 07:24:41;;;;;;;1.70;0.90;;;4.30;1.40;;;4.48;100.00;94773.35;645603;212;31585;-74
2022/04/05 07:27:23;;;;;;;1.60;1.20;;;4.40;1.40;;;4.60;100.00;94761.80;646049;212;31597;-73
2022/04/05 07:30:12;;;;;;;2.28;1.90;;;4.50;1.40;;;4.63;100.00;94764.78;647173;212;31696;-79
2022/04/05 07:32:55;;;;;;;2.00;1.80;;;4.50;1.40;;;4.64;100.00;94775.77;618612;226;31933;-73
2022/04/05 07:35:51;;;;;;;3.75;2.35;;;4.50;1.40;;;4.63;100.00;94767.09;647041;212;42778;-75
2022/04/05 07:38:33;;;;;;;2.10;1.30;;;4.50;1.40;;;4.61;100.00;94776.19;646655;212;31586;-74
2022/04/05 07:43:52;;;;;;;2.15;1.50;;;4.50;1.40;;;4.64;100.00;94778.52;648055;216;31584;-75
2022/04/05 07:46:35;;;;;;;2.10;1.52;;;4.60;1.40;;;4.64;100.00;94767.94;618577;222;32226;-75
2022/04/05 07:49:15;;;;;;;1.93;1.27;;;4.60;1.40;;;4.71;100.00;94791.58;646329;212;31843;-75
2022/04/05 07:51:57;;;;;;;1.80;0.95;;;4.60;1.40;;;4.71;100.00;94774.71;645979;216;31619;-74
2022/04/05 07:54:39;;;;;;;2.25;1.85;;;4.60;1.40;;;4.70;100.00;94785.08;646770;216;31959;-74
2022/04/05 07:57:20;;;;;;;1.48;1.33;;;4.60;1.40;;;4.70;100.00;94755.92;646574;216;31591;-74
2022/04/05 08:00:02;;;;;;;1.60;1.48;;;4.40;1.40;;;4.65;100.00;94766.08;646864;212;32248;-73
2022/04/05 08:02:44;;;;;;;3.70;1.50;;;4.40;1.40;;;4.65;100.00;94769.22;645536;212;31853;-73
2022/04/05 08:05:25;;;;;;;2.90;1.17;;;4.50;1.40;;;4.67;100.00;94776.95;614985;226;37007;-73
2022/04/05 08:08:08;;;;;;;1.20;1.00;;;4.50;1.40;;;4.69;100.00;94766.25;641747;212;31769;-73
2022/04/05 08:10:52;;;;;;;1.37;0.57;;;4.50;1.40;;;4.67;100.00;94765.52;646176;216;31713;-73
2022/04/05 08:13:33;;;;;;;1.90;1.65;;;4.50;1.40;;;4.62;100.00;94764.57;647031;216;31547;-73
2022/04/05 08:16:18;;;;;;;1.70;1.30;;;4.50;1.40;;;4.69;100.00;94776.29;619019;226;31904;-73
2022/04/05 08:19:00;;;;;;;1.10;1.00;;;4.60;1.40;;;4.74;100.00;94767.66;645777;212;31610;-75
2022/04/05 08:21:41;;;;;;;1.45;1.35;;;4.60;1.40;;;4.77;100.00;94785.44;618052;222;32398;-73
2022/04/05 08:24:23;;;;;;;2.35;1.83;;;4.60;1.40;;;4.85;100.00;94780.08;619822;222;31891;-73
2022/04/05 08:27:05;;;;;;;1.33;0.90;;;4.70;1.40;;;4.89;100.00;94771.97;619906;226;31947;-73
2022/04/05 08:29:46;;;;;;;1.10;0.95;;;4.70;1.40;;;4.91;100.00;94791.39;646783;216;42158;-74
2022/04/05 08:32:29;;;;;;;2.00;1.80;;;4.80;1.40;;;4.93;100.00;94789.70;645472;216;31490;-74
2022/04/05 08:35:57;;;;;;;1.55;1.00;;;4.80;1.40;;;5.01;100.00;94797.73;648096;216;31560;-76
2022/04/05 08:38:45;;;;;;;1.20;1.10;;;4.90;1.40;;;5.04;100.00;94798.53;646105;216;31664;-74
2022/04/05 08:41:29;;;;;;;1.87;1.20;;;5.00;1.40;;;5.07;100.00;94797.84;646508;212;31520;-74
2022/04/05 08:44:15;;;;;;;2.20;1.12;;;5.00;1.40;;;5.11;100.00;94793.35;620094;226;31995;-78
2022/04/05 08:47:03;;;;;;;1.87;1.70;;;5.10;1.40;;;5.28;100.00;94801.29;644591;216;42366;-74
2022/04/05 08:49:45;;;;;;;1.23;0.85;;;5.30;1.40;;;5.40;100.00;94796.38;619442;222;32236;-76
2022/04/05 08:52:27;;;;;;;1.60;1.50;;;5.30;1.40;;;5.55;100.00;94801.68;645956;216;31482;-75
2022/04/05 08:55:11;;;;;;;1.20;0.70;;;5.50;1.40;;;5.72;100.00;94798.14;645964;212;32636;-76
2022/04/05 08:57:59;;;;;;;1.35;0.88;;;5.60;1.40;;;5.76;100.00;94808.16;618236;224;31896;-79
2022/04/05 09:00:47;;;;;;;1.60;0.98;;;5.70;1.40;;;5.80;100.00;94805.75;645336;216;31532;-76
2022/04/05 09:03:32;;;;;;;1.70;0.93;;;5.70;1.40;;;5.85;100.00;94807.03;631927;221;31700;-75
2022/04/05 09:06:27;;;;;;;1.20;0.90;;;5.70;1.40;;;5.77;100.00;94803.27;649140;212;31509;-78
2022/04/05 09:09:17;;;;;;;1.20;0.95;;;5.70;1.40;;;5.80;100.00;94808.55;635991;216;31661;-75
2022/04/05 09:11:59;;;;;;;2.42;1.30;;;5.70;1.40;;;5.91;100.00;94814.08;646474;216;42159;-76
2022/04/05 09:14:41;;;;;;;1.85;1.58;;;5.70;1.40;;;5.80;100.00;94811.29;618956;226;31904;-75
2022/04/05 09:17:22;;;;;;;1.30;1.00;;;5.70;1.40;;;5.83;100.00;94811.62;647775;216;31574;-76
2022/04/05 09:20:03;;;;;;;1.20;1.10;;;5.70;1.40;;;5.85;100.00;94813.10;647546;216;31578;-74
2022/04/05 09:22:45;;;;;;;2.28;1.25;;;5.80;1.40;;;5.93;100.00;94811.99;631498;217;42997;-75
2022/04/05 09:25:27;;;;;;;2.00;1.40;;;5.80;1.40;;;5.94;100.00;94818.59;648713;212;32102;-75
2022/04/05 09:28:09;;;;;;;1.40;0.80;;;5.80;1.40;;;5.93;100.00;94809.09;647260;212;32134;-75
2022/04/05 09:30:51;;;;;;;1.48;1.25;;;5.80;1.40;;;5.98;100.00;94809.97;641842;217;31524;-75
2022/04/05 09:35:55;;;;;;;1.40;1.00;;;6.00;1.40;;;6.11;100.00;94810.41;646214;216;31683;-75
2022/04/05 09:38:33;;;;;;;1.33;0.90;;;6.00;1.40;;;6.12;100.00;94808.67;641651;215;31833;-76
2022/04/05 09:41:16;;;;;;;2.12;1.02;;;6.00;1.40;;;6.29;100.00;94808.50;645139;216;31498;-75
2022/04/05 09:44:01;;;;;;;1.92;1.25;;;6.10;1.40;;;6.27;100.00;94810.35;645027;212;42134;-75
2022/04/05 09:46:43;;;;;;;2.40;1.20;;;6.20;1.40;;;6.35;100.00;94815.05;647020;216;31529;-75
2022/04/05 09:49:24;;;;;;;2.58;1.15;;;6.40;1.40;;;6.49;100.00;94826.29;645001;216;31943;-75
2022/04/05 09:52:23;;;;;;;1.35;0.95;;;6.40;1.40;;;6.49;100.00;94819.72;647065;216;31486;-75
2022/04/05 09:55:12;;;;;;;1.50;1.02;;;6.50;1.40;;;6.64;100.00;94811.54;646192;216;42914;-75
2022/04/05 09:57:54;;;;;;;1.00;0.85;;;6.60;1.40;;;6.83;100.00;94818.23;646452;216;42181;-77
2022/04/05 10:00:35;;;;;;;3.80;1.10;;;6.80;1.40;;;6.95;100.00;94809.42;646473;212;42111;-76
2022/04/05 10:03:17;;;;;;;1.30;1.00;;;6.80;1.40;;;7.12;100.00;94822.88;647614;216;31495;-76
2022/04/05 10:05:58;;;;;;;0.70;0.60;;;7.00;1.40;;;7.16;100.00;94818.28;619086;222;31935;-76
2022/04/05 10:11:14;;;;;;;1.30;1.20;;;7.00;1.40;;;7.28;100.00;94826.43;646310;212;31596;-76
2022/04/05 10:13:56;;;;;;;1.95;1.30;;;7.00;1.40;;;7.48;100.00;94816.08;646934;216;31525;-76
2022/04/05 10:16:41;;;;;;;3.60;1.10;;;7.20;1.40;;;7.56;100.00;94819.38;646319;216;32105;-76
2022/04/05 10:19:31;;;;;;;0.83;0.73;;;7.30;1.40;;;7.62;100.00;94839.06;627952;225;31624;-77
2022/04/05 10:22:18;;;;;;;1.83;1.40;;;7.30;1.40;;;7.63;100.00;94831.56;646654;212;31532;-75
2022/04/05 10:24:59;;;;;;;1.40;1.23;;;7.30;1.40;;;7.79;100.00;94825.56;646733;212;32005;-75
2022/04/05 10:27:52;;;;;;;2.00;1.13;;;7.40;1.40;;;7.86;100.00;94834.79;648788;216;31519;-78
2022/04/05 10:30:42;;;;;;;1.90;1.27;;;7.50;1.40;;;7.71;100.00;94832.36;646003;212;31689;-75
2022/04/05 10:35:55;;;;;;;1.60;1.12;;;7.30;1.40;;;7.51;100.00;94853.47;646076;212;31548;-76
2022/04/05 10:38:43;;;;;;;1.30;0.93;;;7.20;1.40;;;7.39;100.00;94835.17;646576;213;31728;-77
2022/04/05 10:41:30;;;;;;;1.20;1.00;;;7.30;1.40;;;7.42;100.00;94820.27;629585;220;31718;-76
2022/04/05 10:44:27;;;;;;;1.50;1.20;;;7.20;1.40;;;7.43;100.00;94835.53;648976;212;31516;-78
2022/04/05 10:47:17;;;;;;;1.20;1.10;;;7.20;1.40;;;7.53;100.00;94835.78;646281;212;31534;-76
2022/04/05 10:50:01;;;;;;;0.90;0.75;;;7.30;1.40;;;7.43;100.00;94838.77;619965;222;31884;-76
2022/04/05 10:52:59;;;;;;;1.00;0.80;;;7.20;1.40;;;7.50;100.00;94825.33;619565;226;32790;-78
2022/04/05 10:56:19;;;;;;;2.22;1.23;;;7.30;1.40;;;7.59;100.00;94832.91;646183;212;31541;-76
2022/04/05 10:59:19;;;;;;;1.70;1.30;;;7.40;1.40;;;7.72;100.00;94823.34;647054;216;42562;-76
2022/04/05 11:02:09;;;;;;;1.23;1.12;;;7.50;1.40;;;7.83;100.00;94823.03;647907;216;31758;-76
2022/04/05 11:05:01;;;;;;;1.10;0.90;;;7.60;1.40;;;7.77;100.00;94822.00;647618;212;42243;-78
2022/04/05 11:10:46;;;;;;;1.60;1.15;;;7.40;1.40;;;7.60;100.00;94847.63;645993;216;31560;-75
2022/04/05 11:24:07;;;;;;;0.60;0.60;;;7.80;1.40;;;8.18;100.00;94820.84;621753;226;31956;-78
2022/04/05 11:26:49;;;;;;;1.10;1.00;;;7.90;1.40;;;8.32;100.00;94812.14;649721;212;31586;-77
2022/04/05 11:29:31;;;;;;;12.53;5.37;;;8.00;1.40;;;8.40;100.00;94825.75;648665;216;31548;-77
2022/04/05 11:32:13;;;;;;;13.83;7.97;;;8.00;1.40;;;8.41;100.00;94813.09;650369;216;31887;-78
2022/04/05 11:36:14;;;;;;;2.90;2.70;;;8.10;1.40;;;8.69;100.00;94817.13;655860;212;27069;-76
2022/04/05 11:39:02;;;;;;;3.90;2.60;;;8.10;1.40;;;8.49;100.00;94811.80;645856;216;31582;-78
2022/04/05 11:41:46;;;;;;;1.87;0.90;;;8.10;1.40;;;8.43;100.00;94814.33;643289;216;42190;-78
2022/04/05 11:44:29;;;;;;;1.30;1.10;;;8.10;1.40;;;8.41;100.00;94809.84;621643;222;31876;-78
2022/04/05 11:47:11;;;;;;;1.83;1.30;;;8.00;1.40;;;8.48;100.00;94819.55;617432;224;32237;-77
2022/04/05 11:49:58;;;;;;;2.30;1.50;;;8.00;1.40;;;8.41;100.00;94822.33;642093;216;42327;-78
2022/04/05 11:52:46;;;;;;;1.33;1.00;;;8.00;1.40;;;8.51;100.00;94812.99;648387;212;31587;-77
2022/04/05 11:58:15;;;;;;;1.08;0.90;;;8.30;1.40;;;9.03;100.00;94806.65;619108;222;42450;-77
2022/04/05 12:00:57;;;;;;;2.40;0.60;;;8.50;1.40;;;8.73;100.00;94813.13;620629;226;31900;-78
2022/04/05 12:03:47;;;;;;;1.10;0.70;;;8.30;1.40;;;8.67;100.00;94810.86;648163;212;31887;-77
2022/04/05 12:06:34;;;;;;;1.60;1.40;;;8.40;1.40;;;8.61;100.00;94814.52;647582;212;31553;-78
2022/04/05 12:09:16;;;;;;;1.10;0.83;;;8.30;1.40;;;8.66;100.00;94817.86;620673;222;31825;-76
2022/04/05 12:11:57;;;;;;;6.62;3.28;;;8.30;1.40;;;8.81;100.00;94810.64;619676;222;31877;-78
2022/04/05 12:14:48;;;;;;;3.50;2.10;;;8.50;1.40;;;8.98;100.00;94814.83;646158;216;32292;-76
2022/04/05 12:17:35;;;;;;;3.03;2.70;;;8.50;1.40;;;9.01;100.00;94804.81;648241;212;31644;-77
2022/04/05 12:20:21;;;;;;;6.00;3.43;;;8.60;1.40;;;9.18;100.00;94805.02;646825;212;32228;-78
2022/04/05 12:23:03;;;;;;;2.45;1.80;;;8.70;1.40;;;9.40;100.00;94814.30;619365;226;31961;-78
2022/04/05 12:25:50;;;;;;;1.40;0.70;;;9.00;1.40;;;9.46;100.00;94815.49;646106;216;31574;-78
2022/04/05 12:28:37;;;;;;;1.20;1.10;;;8.90;1.40;;;9.69;100.00;94804.21;647263;216;31568;-77
2022/04/05 12:31:19;;;;;;;1.40;0.93;;;9.00;1.40;;;9.66;100.00;94820.25;648622;212;31922;-78
2022/04/05 12:35:51;;;;;;;0.80;0.65;;;8.90;1.40;;;9.50;100.00;94802.45;647477;216;31824;-78
2022/04/05 12:38:36;;;;;;;1.02;0.93;;;8.90;1.40;;;9.50;100.00;94803.70;619937;226;31894;-77
2022/04/05 12:41:18;;;;;;;0.60;0.60;;;9.10;1.40;;;9.44;100.00;94806.56;618290;222;32219;-77
2022/04/05 12:44:05;;;;;;;1.20;1.00;;;8.90;1.40;;;9.48;100.00;94797.05;621620;226;32158;-79